Nelson, Ohio
Current Conditions -  °F | °C
As of 6:38 PM on Saturday 25 Oct 2014 (Local Time) from KPOV Reporting Station
Clear Clear  
Wind Chill: 65°   Ceiling: Unl
Heat Index: 65°   Visibility: 10mi
Dew Point: 40°   Wind: 16mph
Humidity: 40%   Direction: 260°W
Pressure: 29.74"   Gusts: 23mph
Location:  41.3076°N, 81.0739°W
Report Text: KPOV 252238Z AUTO 26014G20KT 10SM CLR 18/05 A2974 RMK AO2 T01830045
Loading
Personal Weather Stations






























Interactive Weather Map
Tropical Storm Tracking
New forecast layout! Learn more

10-Day Weather Forecast

Advertisements
Track Severe Weather on mobile